»·PEaware :: N132EF KMYF-KPSP

N132EF :: KMYF-KPSP

FLIGHT INFORMATION

Flight Status: Arrived
Operator: Privately registered:
United States
More flights under this callsign
Pilot: Ron R. (25532)
Aircraft: BEECH AIRCRAFT DUKE
(BE60)
More flights by this aircraft type
Origin: KMYF Montgomery
United States
Destination: KPSP Palm Springs Intl
United States
More flights between these airports :: More routes between these airports
Route: +JLI V514 TRM
File this flight plan on PilotEdge
Remarks:
Altitude:
(Current/Filed)
11,000ft
Speed:
(Current/Filed)
200kts
Departed: 28-Aug-19 08:27 PM
Arrived: 28-Aug-19 09:05 PM
Distance/Time
Traveled:
68nm/0:38
Distance/Time
To Go:
Arrived

Flight Plot

Page will automatically refresh every two minutes.

Flight plan parsing failed; only flown route is shown


Map Options




Map Legend


Flown Route
Filed Route
Departure Airport
Arrival Airport
Navaid (VOR, NDB)
Fix

Horizontal Profiles

Position Reports

Time Latitude Longitude Heading Altitude Ground
Speed
28-Aug-19 19:58 32.813286 -117.140522 23 430ft 0kts
28-Aug-19 19:58 32.813286 -117.140522 23 430ft 0kts
28-Aug-19 20:00 32.813286 -117.140522 23 430ft 0kts
28-Aug-19 20:00 32.813286 -117.140522 23 430ft 0kts
28-Aug-19 20:01 32.813286 -117.140522 23 430ft 0kts
28-Aug-19 20:02 32.813286 -117.140522 23 430ft 0kts
28-Aug-19 20:03 32.813286 -117.140522 23 430ft 0kts
28-Aug-19 20:04 32.813287 -117.140522 23 430ft 0kts
28-Aug-19 20:05 32.813287 -117.140522 23 430ft 0kts
28-Aug-19 20:06 32.813287 -117.140522 23 430ft 0kts
28-Aug-19 20:07 32.813287 -117.140522 23 430ft 0kts
28-Aug-19 20:08 32.813287 -117.140522 23 430ft 0kts
28-Aug-19 20:09 32.813287 -117.140522 23 430ft 0kts
28-Aug-19 20:10 32.813287 -117.140522 23 430ft 0kts
28-Aug-19 20:11 32.813287 -117.140522 23 430ft 0kts
28-Aug-19 20:12 32.813287 -117.140522 23 430ft 0kts
28-Aug-19 20:13 32.813287 -117.140522 23 430ft 0kts
28-Aug-19 20:14 32.813548 -117.140349 46 430ft 9kts
28-Aug-19 20:15 32.812477 -117.135833 114 430ft 16kts
28-Aug-19 20:16 32.812235 -117.131853 344 430ft 6kts
28-Aug-19 20:17 32.812301 -117.131941 297 430ft 0kts
28-Aug-19 20:18 32.812303 -117.131945 297 430ft 0kts
28-Aug-19 20:19 32.812304 -117.131949 297 430ft 0kts
28-Aug-19 20:20 32.812307 -117.131955 297 430ft 0kts
28-Aug-19 20:21 32.812310 -117.131963 297 430ft 0kts
28-Aug-19 20:22 32.812312 -117.131966 297 430ft 0kts
28-Aug-19 20:23 32.812557 -117.132051 26 430ft 0kts
28-Aug-19 20:24 32.812596 -117.132028 26 430ft 0kts
28-Aug-19 20:25 32.813268 -117.132233 295 430ft 0kts
28-Aug-19 20:26 32.823771 -117.159821 288 1013ft 140kts
28-Aug-19 20:27 32.831218 -117.204982 279 2711ft 139kts
28-Aug-19 20:28 32.839166 -117.250844 282 4416ft 145kts
28-Aug-19 20:29 32.849860 -117.299044 282 5594ft 152kts
28-Aug-19 20:30 32.860453 -117.347883 282 6790ft 152kts
28-Aug-19 20:31 32.887790 -117.373304 37 7969ft 162kts
28-Aug-19 20:32 32.903711 -117.321214 72 9317ft 177kts
28-Aug-19 20:33 32.921723 -117.265322 71 10713ft 184kts
28-Aug-19 20:34 32.942312 -117.201691 71 11009ft 226kts
28-Aug-19 20:35 32.964428 -117.133837 70 11002ft 210kts
28-Aug-19 20:36 32.984562 -117.071434 71 11002ft 196kts
28-Aug-19 20:37 33.004475 -117.009676 70 11007ft 201kts
28-Aug-19 20:38 33.024538 -116.947400 70 11012ft 202kts
28-Aug-19 20:39 33.044597 -116.884995 70 11013ft 201kts
28-Aug-19 20:40 33.064625 -116.822573 70 11012ft 201kts
28-Aug-19 20:41 33.084645 -116.760042 70 11010ft 202kts
28-Aug-19 20:42 33.104704 -116.697262 70 11008ft 202kts
28-Aug-19 20:43 33.124645 -116.634540 70 10996ft 202kts
28-Aug-19 20:44 33.149888 -116.575548 35 10988ft 203kts
28-Aug-19 20:45 33.196366 -116.536831 35 10971ft 204kts
28-Aug-19 20:46 33.242199 -116.496947 35 10951ft 203kts
28-Aug-19 20:47 33.288245 -116.456843 35 10890ft 205kts
28-Aug-19 20:48 33.334370 -116.416756 35 10856ft 204kts
28-Aug-19 20:49 33.380354 -116.376826 35 10838ft 204kts
28-Aug-19 20:50 33.426069 -116.336890 35 10822ft 203kts
28-Aug-19 20:51 33.471482 -116.297299 35 10807ft 199kts
28-Aug-19 20:52 33.515869 -116.258459 35 10795ft 196kts
28-Aug-19 20:53 33.558963 -116.220683 35 10466ft 192kts
28-Aug-19 20:54 33.599929 -116.184551 33 8990ft 176kts
28-Aug-19 20:55 33.639647 -116.152239 4 7474ft 168kts
28-Aug-19 20:56 33.672412 -116.186100 302 6018ft 169kts
28-Aug-19 20:57 33.701708 -116.232059 302 4517ft 172kts
28-Aug-19 20:58 33.725035 -116.281154 293 3673ft 177kts
28-Aug-19 20:59 33.743997 -116.336802 286 2988ft 174kts
28-Aug-19 21:00 33.759979 -116.389392 287 2881ft 165kts
28-Aug-19 21:01 33.773989 -116.434505 287 2195ft 125kts
28-Aug-19 21:02 33.788864 -116.469132 310 1373ft 107kts
28-Aug-19 21:03 33.811231 -116.491199 321 666ft 99kts
28-Aug-19 21:04 33.828897 -116.506973 323 480ft 28kts
28-Aug-19 21:05 33.829548 -116.508398 256 480ft 0kts
28-Aug-19 21:06 33.829433 -116.508953 255 480ft 5kts
28-Aug-19 21:07 33.826542 -116.509473 149 480ft 12kts
28-Aug-19 21:08 33.825246 -116.508834 179 480ft 0kts
28-Aug-19 21:09 33.825245 -116.508834 179 480ft 0kts

Navigation Log

Ident Type
Flight plan parsing failed, navigation log unavailable